sensor_id;sensor_type;location;lat;lon;timestamp;P1;durP1;ratioP1;P2;durP2;ratioP2
70731;SDS011;58316;48.164;11.538;2022-07-01T00:01:24;8.90;;;3.50;;
70731;SDS011;58316;48.164;11.538;2022-07-01T00:03:50;9.63;;;3.47;;
70731;SDS011;58316;48.164;11.538;2022-07-01T00:06:19;7.03;;;3.50;;
70731;SDS011;58316;48.164;11.538;2022-07-01T00:08:46;9.70;;;4.13;;
70731;SDS011;58316;48.164;11.538;2022-07-01T00:11:13;10.02;;;3.72;;
70731;SDS011;58316;48.164;11.538;2022-07-01T00:13:39;9.35;;;3.53;;
70731;SDS011;58316;48.164;11.538;2022-07-01T00:16:05;10.80;;;3.92;;
70731;SDS011;58316;48.164;11.538;2022-07-01T00:18:31;7.15;;;3.70;;
70731;SDS011;58316;48.164;11.538;2022-07-01T00:20:57;9.50;;;3.30;;
70731;SDS011;58316;48.164;11.538;2022-07-01T00:23:26;7.35;;;3.60;;
70731;SDS011;58316;48.164;11.538;2022-07-01T00:25:52;9.82;;;4.35;;
70731;SDS011;58316;48.164;11.538;2022-07-01T00:28:18;10.80;;;3.78;;
70731;SDS011;58316;48.164;11.538;2022-07-01T00:30:44;9.68;;;3.08;;
70731;SDS011;58316;48.164;11.538;2022-07-01T00:33:10;8.13;;;3.30;;
70731;SDS011;58316;48.164;11.538;2022-07-01T00:35:36;7.93;;;3.20;;
70731;SDS011;58316;48.164;11.538;2022-07-01T00:38:02;7.82;;;3.03;;
70731;SDS011;58316;48.164;11.538;2022-07-01T00:40:29;10.38;;;3.30;;
70731;SDS011;58316;48.164;11.538;2022-07-01T00:42:55;7.97;;;3.38;;
70731;SDS011;58316;48.164;11.538;2022-07-01T00:45:21;11.70;;;2.80;;
70731;SDS011;58316;48.164;11.538;2022-07-01T00:47:47;6.72;;;3.00;;
70731;SDS011;58316;48.164;11.538;2022-07-01T00:50:14;8.07;;;2.92;;
70731;SDS011;58316;48.164;11.538;2022-07-01T00:52:41;7.63;;;2.80;;
70731;SDS011;58316;48.164;11.538;2022-07-01T00:55:08;8.15;;;2.75;;
70731;SDS011;58316;48.164;11.538;2022-07-01T00:57:35;7.17;;;1.87;;
70731;SDS011;58316;48.164;11.538;2022-07-01T01:00:09;7.55;;;1.85;;
70731;SDS011;58316;48.164;11.538;2022-07-01T01:02:35;6.15;;;1.80;;
70731;SDS011;58316;48.164;11.538;2022-07-01T01:05:05;5.53;;;1.85;;
70731;SDS011;58316;48.164;11.538;2022-07-01T01:07:32;6.03;;;2.03;;
70731;SDS011;58316;48.164;11.538;2022-07-01T01:10:01;5.10;;;1.63;;
70731;SDS011;58316;48.164;11.538;2022-07-01T01:12:28;4.90;;;1.50;;
70731;SDS011;58316;48.164;11.538;2022-07-01T01:14:54;5.55;;;1.35;;
70731;SDS011;58316;48.164;11.538;2022-07-01T01:17:21;6.35;;;1.20;;
70731;SDS011;58316;48.164;11.538;2022-07-01T01:19:47;4.82;;;1.48;;
70731;SDS011;58316;48.164;11.538;2022-07-01T01:22:14;4.20;;;0.80;;
70731;SDS011;58316;48.164;11.538;2022-07-01T01:24:41;4.68;;;1.05;;
70731;SDS011;58316;48.164;11.538;2022-07-01T01:27:07;4.40;;;1.02;;
70731;SDS011;58316;48.164;11.538;2022-07-01T01:29:34;4.13;;;0.70;;
70731;SDS011;58316;48.164;11.538;2022-07-01T01:32:01;6.45;;;0.75;;
70731;SDS011;58316;48.164;11.538;2022-07-01T01:34:27;5.03;;;0.87;;
70731;SDS011;58316;48.164;11.538;2022-07-01T01:36:53;4.72;;;1.00;;
70731;SDS011;58316;48.164;11.538;2022-07-01T01:39:19;5.85;;;1.55;;
70731;SDS011;58316;48.164;11.538;2022-07-01T01:41:45;6.18;;;0.88;;
70731;SDS011;58316;48.164;11.538;2022-07-01T01:44:11;3.95;;;0.60;;
70731;SDS011;58316;48.164;11.538;2022-07-01T01:46:38;4.10;;;0.70;;
70731;SDS011;58316;48.164;11.538;2022-07-01T01:49:04;7.82;;;0.80;;
70731;SDS011;58316;48.164;11.538;2022-07-01T01:51:30;5.47;;;1.05;;
70731;SDS011;58316;48.164;11.538;2022-07-01T01:53:56;3.67;;;0.60;;
70731;SDS011;58316;48.164;11.538;2022-07-01T01:56:23;4.72;;;1.20;;
70731;SDS011;58316;48.164;11.538;2022-07-01T01:58:49;4.93;;;0.87;;
70731;SDS011;58316;48.164;11.538;2022-07-01T02:01:15;4.00;;;0.70;;
70731;SDS011;58316;48.164;11.538;2022-07-01T02:03:42;4.70;;;0.93;;
70731;SDS011;58316;48.164;11.538;2022-07-01T02:06:09;4.78;;;0.80;;
70731;SDS011;58316;48.164;11.538;2022-07-01T02:08:35;4.10;;;0.80;;
70731;SDS011;58316;48.164;11.538;2022-07-01T02:11:01;4.57;;;0.70;;
70731;SDS011;58316;48.164;11.538;2022-07-01T02:13:28;3.53;;;0.60;;
70731;SDS011;58316;48.164;11.538;2022-07-01T02:15:54;3.80;;;0.70;;
70731;SDS011;58316;48.164;11.538;2022-07-01T02:18:20;4.20;;;0.70;;
70731;SDS011;58316;48.164;11.538;2022-07-01T02:20:46;4.60;;;0.85;;
70731;SDS011;58316;48.164;11.538;2022-07-01T02:23:12;4.97;;;0.87;;
70731;SDS011;58316;48.164;11.538;2022-07-01T02:25:38;4.18;;;0.80;;
70731;SDS011;58316;48.164;11.538;2022-07-01T02:28:04;5.03;;;1.00;;
70731;SDS011;58316;48.164;11.538;2022-07-01T02:30:30;4.50;;;0.80;;
70731;SDS011;58316;48.164;11.538;2022-07-01T02:33:00;4.10;;;0.70;;
70731;SDS011;58316;48.164;11.538;2022-07-01T02:35:26;4.17;;;0.90;;
70731;SDS011;58316;48.164;11.538;2022-07-01T02:37:52;4.45;;;0.80;;
70731;SDS011;58316;48.164;11.538;2022-07-01T02:40:18;4.75;;;0.70;;
70731;SDS011;58316;48.164;11.538;2022-07-01T02:42:44;4.22;;;1.10;;
70731;SDS011;58316;48.164;11.538;2022-07-01T02:45:11;4.50;;;0.93;;
70731;SDS011;58316;48.164;11.538;2022-07-01T02:47:38;4.00;;;0.90;;
70731;SDS011;58316;48.164;11.538;2022-07-01T02:50:05;4.88;;;1.23;;
70731;SDS011;58316;48.164;11.538;2022-07-01T02:52:32;4.03;;;0.60;;
70731;SDS011;58316;48.164;11.538;2022-07-01T02:54:59;4.53;;;0.90;;
70731;SDS011;58316;48.164;11.538;2022-07-01T02:57:25;4.78;;;0.98;;
70731;SDS011;58316;48.164;11.538;2022-07-01T02:59:51;4.47;;;1.00;;
70731;SDS011;58316;48.164;11.538;2022-07-01T03:02:20;4.30;;;0.82;;
70731;SDS011;58316;48.164;11.538;2022-07-01T03:04:47;4.40;;;0.80;;
70731;SDS011;58316;48.164;11.538;2022-07-01T03:07:14;4.20;;;1.00;;
70731;SDS011;58316;48.164;11.538;2022-07-01T03:09:40;4.25;;;0.88;;
70731;SDS011;58316;48.164;11.538;2022-07-01T03:12:07;4.37;;;0.87;;
70731;SDS011;58316;48.164;11.538;2022-07-01T03:14:52;3.83;;;0.80;;
70731;SDS011;58316;48.164;11.538;2022-07-01T03:17:18;3.88;;;0.70;;
70731;SDS011;58316;48.164;11.538;2022-07-01T03:19:44;4.30;;;0.90;;
70731;SDS011;58316;48.164;11.538;2022-07-01T03:22:10;4.55;;;1.08;;
70731;SDS011;58316;48.164;11.538;2022-07-01T03:24:36;4.40;;;1.20;;
70731;SDS011;58316;48.164;11.538;2022-07-01T03:27:02;4.63;;;1.05;;
70731;SDS011;58316;48.164;11.538;2022-07-01T03:29:29;4.50;;;1.10;;
70731;SDS011;58316;48.164;11.538;2022-07-01T03:31:55;5.13;;;1.10;;
70731;SDS011;58316;48.164;11.538;2022-07-01T03:34:21;4.60;;;0.80;;
70731;SDS011;58316;48.164;11.538;2022-07-01T03:36:47;4.70;;;1.10;;
70731;SDS011;58316;48.164;11.538;2022-07-01T03:39:13;4.38;;;1.10;;
70731;SDS011;58316;48.164;11.538;2022-07-01T03:41:39;4.72;;;0.95;;
70731;SDS011;58316;48.164;11.538;2022-07-01T03:44:05;4.25;;;1.10;;
70731;SDS011;58316;48.164;11.538;2022-07-01T03:46:31;5.03;;;1.20;;
70731;SDS011;58316;48.164;11.538;2022-07-01T03:48:58;4.97;;;1.20;;
70731;SDS011;58316;48.164;11.538;2022-07-01T03:51:24;4.50;;;0.90;;
70731;SDS011;58316;48.164;11.538;2022-07-01T03:53:50;4.47;;;1.13;;
70731;SDS011;58316;48.164;11.538;2022-07-01T03:56:35;4.93;;;1.15;;
70731;SDS011;58316;48.164;11.538;2022-07-01T03:59:01;4.32;;;1.10;;
70731;SDS011;58316;48.164;11.538;2022-07-01T04:01:27;4.40;;;1.00;;
70731;SDS011;58316;48.164;11.538;2022-07-01T04:03:53;5.05;;;0.77;;
70731;SDS011;58316;48.164;11.538;2022-07-01T04:06:19;5.43;;;1.00;;
70731;SDS011;58316;48.164;11.538;2022-07-01T04:08:45;5.28;;;1.40;;
70731;SDS011;58316;48.164;11.538;2022-07-01T04:11:21;3.88;;;0.88;;
70731;SDS011;58316;48.164;11.538;2022-07-01T04:13:47;3.87;;;0.80;;
70731;SDS011;58316;48.164;11.538;2022-07-01T04:16:17;5.43;;;1.10;;
70731;SDS011;58316;48.164;11.538;2022-07-01T04:18:43;3.90;;;0.85;;
70731;SDS011;58316;48.164;11.538;2022-07-01T04:21:10;4.28;;;1.10;;
70731;SDS011;58316;48.164;11.538;2022-07-01T04:23:54;4.30;;;1.10;;
70731;SDS011;58316;48.164;11.538;2022-07-01T04:26:22;3.97;;;0.90;;
70731;SDS011;58316;48.164;11.538;2022-07-01T04:28:48;4.38;;;1.17;;
70731;SDS011;58316;48.164;11.538;2022-07-01T04:31:14;4.55;;;0.95;;
70731;SDS011;58316;48.164;11.538;2022-07-01T04:33:40;4.60;;;1.08;;
70731;SDS011;58316;48.164;11.538;2022-07-01T04:36:06;5.15;;;1.13;;
70731;SDS011;58316;48.164;11.538;2022-07-01T04:38:32;4.50;;;0.60;;
70731;SDS011;58316;48.164;11.538;2022-07-01T04:40:58;4.60;;;0.88;;
70731;SDS011;58316;48.164;11.538;2022-07-01T04:43:43;4.50;;;0.80;;
70731;SDS011;58316;48.164;11.538;2022-07-01T04:46:09;6.75;;;1.40;;
70731;SDS011;58316;48.164;11.538;2022-07-01T04:48:35;4.75;;;0.90;;
70731;SDS011;58316;48.164;11.538;2022-07-01T04:51:01;4.93;;;1.57;;
70731;SDS011;58316;48.164;11.538;2022-07-01T04:53:27;4.20;;;1.00;;
70731;SDS011;58316;48.164;11.538;2022-07-01T04:55:53;4.20;;;0.98;;
70731;SDS011;58316;48.164;11.538;2022-07-01T04:58:19;5.63;;;0.90;;
70731;SDS011;58316;48.164;11.538;2022-07-01T05:00:45;4.67;;;1.03;;
70731;SDS011;58316;48.164;11.538;2022-07-01T05:03:13;5.80;;;1.07;;
70731;SDS011;58316;48.164;11.538;2022-07-01T05:05:39;4.40;;;1.20;;
70731;SDS011;58316;48.164;11.538;2022-07-01T05:08:05;5.15;;;1.38;;
70731;SDS011;58316;48.164;11.538;2022-07-01T05:10:31;5.15;;;0.93;;
70731;SDS011;58316;48.164;11.538;2022-07-01T05:12:58;4.75;;;1.05;;
70731;SDS011;58316;48.164;11.538;2022-07-01T05:15:24;4.60;;;1.17;;
70731;SDS011;58316;48.164;11.538;2022-07-01T05:17:50;5.13;;;1.20;;
70731;SDS011;58316;48.164;11.538;2022-07-01T05:20:34;5.82;;;1.17;;
70731;SDS011;58316;48.164;11.538;2022-07-01T05:23:19;4.90;;;1.30;;
70731;SDS011;58316;48.164;11.538;2022-07-01T05:25:45;4.60;;;1.10;;
70731;SDS011;58316;48.164;11.538;2022-07-01T05:28:11;4.20;;;0.80;;
70731;SDS011;58316;48.164;11.538;2022-07-01T05:30:37;5.10;;;1.35;;
70731;SDS011;58316;48.164;11.538;2022-07-01T05:33:03;5.50;;;1.27;;
70731;SDS011;58316;48.164;11.538;2022-07-01T05:35:29;5.22;;;1.17;;
70731;SDS011;58316;48.164;11.538;2022-07-01T05:37:56;6.75;;;1.45;;
70731;SDS011;58316;48.164;11.538;2022-07-01T05:40:22;6.60;;;1.63;;
70731;SDS011;58316;48.164;11.538;2022-07-01T05:42:48;6.93;;;1.60;;
70731;SDS011;58316;48.164;11.538;2022-07-01T05:45:14;5.05;;;1.25;;
70731;SDS011;58316;48.164;11.538;2022-07-01T05:47:40;4.55;;;1.00;;
70731;SDS011;58316;48.164;11.538;2022-07-01T05:50:06;6.03;;;1.35;;
70731;SDS011;58316;48.164;11.538;2022-07-01T05:52:32;4.60;;;0.97;;
70731;SDS011;58316;48.164;11.538;2022-07-01T05:54:58;5.75;;;1.40;;
70731;SDS011;58316;48.164;11.538;2022-07-01T05:57:24;5.03;;;1.15;;
70731;SDS011;58316;48.164;11.538;2022-07-01T05:59:50;5.65;;;0.82;;
70731;SDS011;58316;48.164;11.538;2022-07-01T06:02:16;5.70;;;0.90;;
70731;SDS011;58316;48.164;11.538;2022-07-01T06:04:42;4.07;;;1.07;;
70731;SDS011;58316;48.164;11.538;2022-07-01T06:07:09;6.22;;;1.23;;
70731;SDS011;58316;48.164;11.538;2022-07-01T06:09:35;5.97;;;0.80;;
70731;SDS011;58316;48.164;11.538;2022-07-01T06:12:02;5.22;;;1.00;;
70731;SDS011;58316;48.164;11.538;2022-07-01T06:14:28;4.40;;;0.90;;
70731;SDS011;58316;48.164;11.538;2022-07-01T06:16:54;6.17;;;1.00;;
70731;SDS011;58316;48.164;11.538;2022-07-01T06:19:20;4.78;;;0.80;;
70731;SDS011;58316;48.164;11.538;2022-07-01T06:21:46;5.80;;;1.08;;
70731;SDS011;58316;48.164;11.538;2022-07-01T06:24:12;4.68;;;1.10;;
70731;SDS011;58316;48.164;11.538;2022-07-01T06:26:39;5.10;;;1.20;;
70731;SDS011;58316;48.164;11.538;2022-07-01T06:29:05;4.33;;;1.20;;
70731;SDS011;58316;48.164;11.538;2022-07-01T06:31:32;4.75;;;1.15;;
70731;SDS011;58316;48.164;11.538;2022-07-01T06:33:58;4.50;;;1.05;;
70731;SDS011;58316;48.164;11.538;2022-07-01T06:36:24;4.97;;;1.27;;
70731;SDS011;58316;48.164;11.538;2022-07-01T06:38:51;6.35;;;1.15;;
70731;SDS011;58316;48.164;11.538;2022-07-01T06:41:17;6.57;;;1.60;;
70731;SDS011;58316;48.164;11.538;2022-07-01T06:43:52;5.22;;;0.70;;
70731;SDS011;58316;48.164;11.538;2022-07-01T06:46:19;5.03;;;1.13;;
70731;SDS011;58316;48.164;11.538;2022-07-01T06:48:45;6.63;;;1.40;;
70731;SDS011;58316;48.164;11.538;2022-07-01T06:51:11;5.10;;;1.30;;
70731;SDS011;58316;48.164;11.538;2022-07-01T06:53:37;5.47;;;1.47;;
70731;SDS011;58316;48.164;11.538;2022-07-01T06:56:03;4.70;;;1.23;;
70731;SDS011;58316;48.164;11.538;2022-07-01T06:58:29;4.40;;;1.00;;
70731;SDS011;58316;48.164;11.538;2022-07-01T07:00:55;5.03;;;1.13;;
70731;SDS011;58316;48.164;11.538;2022-07-01T07:03:21;6.38;;;1.52;;
70731;SDS011;58316;48.164;11.538;2022-07-01T07:05:47;5.27;;;1.47;;
70731;SDS011;58316;48.164;11.538;2022-07-01T07:08:13;6.70;;;1.50;;
70731;SDS011;58316;48.164;11.538;2022-07-01T07:10:39;4.47;;;1.10;;
70731;SDS011;58316;48.164;11.538;2022-07-01T07:13:05;5.68;;;1.00;;
70731;SDS011;58316;48.164;11.538;2022-07-01T07:15:31;7.25;;;1.67;;
70731;SDS011;58316;48.164;11.538;2022-07-01T07:17:57;5.53;;;1.67;;
70731;SDS011;58316;48.164;11.538;2022-07-01T07:20:23;5.40;;;1.65;;
70731;SDS011;58316;48.164;11.538;2022-07-01T07:22:50;5.20;;;1.33;;
70731;SDS011;58316;48.164;11.538;2022-07-01T07:25:16;6.28;;;1.83;;
70731;SDS011;58316;48.164;11.538;2022-07-01T07:27:42;5.95;;;2.28;;
70731;SDS011;58316;48.164;11.538;2022-07-01T07:30:11;6.17;;;2.20;;
70731;SDS011;58316;48.164;11.538;2022-07-01T07:32:38;7.63;;;2.17;;
70731;SDS011;58316;48.164;11.538;2022-07-01T07:35:04;6.20;;;2.55;;
70731;SDS011;58316;48.164;11.538;2022-07-01T07:37:31;6.88;;;2.65;;
70731;SDS011;58316;48.164;11.538;2022-07-01T07:40:00;6.28;;;2.53;;
70731;SDS011;58316;48.164;11.538;2022-07-01T07:42:28;7.57;;;2.97;;
70731;SDS011;58316;48.164;11.538;2022-07-01T07:44:54;6.75;;;3.05;;
70731;SDS011;58316;48.164;11.538;2022-07-01T07:47:20;8.55;;;3.10;;
70731;SDS011;58316;48.164;11.538;2022-07-01T07:49:46;6.47;;;2.90;;
70731;SDS011;58316;48.164;11.538;2022-07-01T07:52:13;9.02;;;3.53;;
70731;SDS011;58316;48.164;11.538;2022-07-01T07:54:39;9.83;;;3.23;;
70731;SDS011;58316;48.164;11.538;2022-07-01T07:57:05;6.78;;;2.70;;
70731;SDS011;58316;48.164;11.538;2022-07-01T07:59:54;7.80;;;2.75;;
70731;SDS011;58316;48.164;11.538;2022-07-01T08:02:19;7.15;;;2.85;;
70731;SDS011;58316;48.164;11.538;2022-07-01T08:04:45;5.95;;;2.50;;
70731;SDS011;58316;48.164;11.538;2022-07-01T08:07:11;6.87;;;2.83;;
70731;SDS011;58316;48.164;11.538;2022-07-01T08:09:37;6.72;;;2.50;;
70731;SDS011;58316;48.164;11.538;2022-07-01T08:12:03;6.45;;;2.10;;
70731;SDS011;58316;48.164;11.538;2022-07-01T08:14:29;4.95;;;1.63;;
70731;SDS011;58316;48.164;11.538;2022-07-01T08:16:55;7.18;;;1.55;;
70731;SDS011;58316;48.164;11.538;2022-07-01T08:19:22;4.23;;;0.83;;
70731;SDS011;58316;48.164;11.538;2022-07-01T08:21:48;3.78;;;0.73;;
70731;SDS011;58316;48.164;11.538;2022-07-01T08:24:14;4.53;;;0.60;;
70731;SDS011;58316;48.164;11.538;2022-07-01T08:26:40;4.75;;;0.70;;
70731;SDS011;58316;48.164;11.538;2022-07-01T08:29:06;7.30;;;0.70;;
70731;SDS011;58316;48.164;11.538;2022-07-01T08:31:32;4.20;;;1.03;;
70731;SDS011;58316;48.164;11.538;2022-07-01T08:33:58;4.25;;;0.70;;
70731;SDS011;58316;48.164;11.538;2022-07-01T08:36:24;5.43;;;0.80;;
70731;SDS011;58316;48.164;11.538;2022-07-01T08:38:50;4.90;;;0.85;;
70731;SDS011;58316;48.164;11.538;2022-07-01T08:41:17;5.95;;;0.85;;
70731;SDS011;58316;48.164;11.538;2022-07-01T08:43:44;4.90;;;0.75;;
70731;SDS011;58316;48.164;11.538;2022-07-01T08:46:10;9.65;;;1.10;;
70731;SDS011;58316;48.164;11.538;2022-07-01T08:48:37;4.75;;;1.00;;
70731;SDS011;58316;48.164;11.538;2022-07-01T08:51:07;4.70;;;1.10;;
70731;SDS011;58316;48.164;11.538;2022-07-01T08:53:33;4.68;;;1.10;;
70731;SDS011;58316;48.164;11.538;2022-07-01T08:55:59;4.90;;;1.02;;
70731;SDS011;58316;48.164;11.538;2022-07-01T08:58:43;4.70;;;1.05;;
70731;SDS011;58316;48.164;11.538;2022-07-01T09:03:39;5.07;;;1.10;;
70731;SDS011;58316;48.164;11.538;2022-07-01T09:06:10;5.80;;;1.20;;
70731;SDS011;58316;48.164;11.538;2022-07-01T09:08:37;4.60;;;0.80;;
70731;SDS011;58316;48.164;11.538;2022-07-01T09:11:16;4.78;;;1.10;;
70731;SDS011;58316;48.164;11.538;2022-07-01T09:13:43;6.70;;;1.13;;
70731;SDS011;58316;48.164;11.538;2022-07-01T09:16:15;4.90;;;1.00;;
70731;SDS011;58316;48.164;11.538;2022-07-01T09:21:30;4.25;;;0.77;;
70731;SDS011;58316;48.164;11.538;2022-07-01T09:23:57;5.25;;;1.25;;
70731;SDS011;58316;48.164;11.538;2022-07-01T09:26:23;5.15;;;0.73;;
70731;SDS011;58316;48.164;11.538;2022-07-01T09:28:55;5.20;;;1.15;;
70731;SDS011;58316;48.164;11.538;2022-07-01T09:31:22;5.03;;;0.90;;
70731;SDS011;58316;48.164;11.538;2022-07-01T09:34:03;3.90;;;0.63;;
70731;SDS011;58316;48.164;11.538;2022-07-01T09:36:30;4.68;;;0.93;;
70731;SDS011;58316;48.164;11.538;2022-07-01T09:38:56;4.55;;;0.95;;
70731;SDS011;58316;48.164;11.538;2022-07-01T09:41:22;4.03;;;0.88;;
70731;SDS011;58316;48.164;11.538;2022-07-01T09:43:50;4.05;;;0.70;;
70731;SDS011;58316;48.164;11.538;2022-07-01T09:46:16;5.07;;;1.20;;
70731;SDS011;58316;48.164;11.538;2022-07-01T09:48:43;4.65;;;0.80;;
70731;SDS011;58316;48.164;11.538;2022-07-01T09:51:10;4.25;;;0.88;;
70731;SDS011;58316;48.164;11.538;2022-07-01T09:53:36;4.20;;;1.05;;
70731;SDS011;58316;48.164;11.538;2022-07-01T09:56:03;4.32;;;1.00;;
70731;SDS011;58316;48.164;11.538;2022-07-01T09:58:29;5.22;;;1.02;;
70731;SDS011;58316;48.164;11.538;2022-07-01T10:00:57;5.95;;;1.15;;
70731;SDS011;58316;48.164;11.538;2022-07-01T10:03:23;4.03;;;0.90;;
70731;SDS011;58316;48.164;11.538;2022-07-01T10:12:00;5.25;;;1.45;;
70731;SDS011;58316;48.164;11.538;2022-07-01T10:14:17;4.25;;;0.88;;
70731;SDS011;58316;48.164;11.538;2022-07-01T10:16:45;4.78;;;1.10;;
70731;SDS011;58316;48.164;11.538;2022-07-01T10:21:51;4.65;;;0.95;;
70731;SDS011;58316;48.164;11.538;2022-07-01T10:24:19;5.50;;;1.30;;
70731;SDS011;58316;48.164;11.538;2022-07-01T10:26:45;3.90;;;0.85;;
70731;SDS011;58316;48.164;11.538;2022-07-01T10:32:26;4.00;;;1.00;;
70731;SDS011;58316;48.164;11.538;2022-07-01T10:34:42;4.50;;;1.13;;
70731;SDS011;58316;48.164;11.538;2022-07-01T10:37:11;6.53;;;1.73;;
70731;SDS011;58316;48.164;11.538;2022-07-01T10:42:27;4.45;;;1.00;;
70731;SDS011;58316;48.164;11.538;2022-07-01T10:45:03;4.63;;;1.33;;
70731;SDS011;58316;48.164;11.538;2022-07-01T10:47:30;4.40;;;1.00;;
70731;SDS011;58316;48.164;11.538;2022-07-01T10:50:00;4.78;;;0.95;;
70731;SDS011;58316;48.164;11.538;2022-07-01T10:52:28;5.40;;;1.60;;
70731;SDS011;58316;48.164;11.538;2022-07-01T10:54:56;5.28;;;1.10;;
70731;SDS011;58316;48.164;11.538;2022-07-01T10:57:25;5.03;;;1.58;;
70731;SDS011;58316;48.164;11.538;2022-07-01T11:02:21;6.82;;;0.80;;
70731;SDS011;58316;48.164;11.538;2022-07-01T11:04:49;4.50;;;1.00;;
70731;SDS011;58316;48.164;11.538;2022-07-01T11:07:15;5.90;;;1.10;;
70731;SDS011;58316;48.164;11.538;2022-07-01T11:09:41;5.13;;;1.00;;
70731;SDS011;58316;48.164;11.538;2022-07-01T11:12:07;6.37;;;1.17;;
70731;SDS011;58316;48.164;11.538;2022-07-01T11:14:34;5.35;;;1.00;;
70731;SDS011;58316;48.164;11.538;2022-07-01T11:17:01;7.35;;;1.75;;
70731;SDS011;58316;48.164;11.538;2022-07-01T11:19:27;4.60;;;1.30;;
70731;SDS011;58316;48.164;11.538;2022-07-01T11:21:53;5.18;;;1.20;;
70731;SDS011;58316;48.164;11.538;2022-07-01T11:24:20;4.90;;;1.17;;
70731;SDS011;58316;48.164;11.538;2022-07-01T11:26:47;5.15;;;1.30;;
70731;SDS011;58316;48.164;11.538;2022-07-01T11:29:13;5.30;;;1.40;;
70731;SDS011;58316;48.164;11.538;2022-07-01T11:31:40;17.63;;;2.88;;
70731;SDS011;58316;48.164;11.538;2022-07-01T11:34:06;5.63;;;1.42;;
70731;SDS011;58316;48.164;11.538;2022-07-01T11:36:32;4.90;;;1.10;;
70731;SDS011;58316;48.164;11.538;2022-07-01T11:39:17;4.78;;;1.30;;
70731;SDS011;58316;48.164;11.538;2022-07-01T11:41:54;4.90;;;1.40;;
70731;SDS011;58316;48.164;11.538;2022-07-01T11:46:55;5.35;;;1.10;;
70731;SDS011;58316;48.164;11.538;2022-07-01T11:49:21;4.57;;;1.03;;
70731;SDS011;58316;48.164;11.538;2022-07-01T11:52:04;4.68;;;1.02;;
70731;SDS011;58316;48.164;11.538;2022-07-01T11:54:35;4.50;;;0.80;;
70731;SDS011;58316;48.164;11.538;2022-07-01T11:57:08;8.15;;;1.38;;
70731;SDS011;58316;48.164;11.538;2022-07-01T11:59:34;4.90;;;1.25;;
70731;SDS011;58316;48.164;11.538;2022-07-01T12:02:03;4.47;;;1.10;;
70731;SDS011;58316;48.164;11.538;2022-07-01T12:04:29;4.60;;;1.10;;
70731;SDS011;58316;48.164;11.538;2022-07-01T12:06:56;5.60;;;1.15;;
70731;SDS011;58316;48.164;11.538;2022-07-01T12:09:23;4.63;;;0.90;;
70731;SDS011;58316;48.164;11.538;2022-07-01T12:11:50;4.53;;;1.02;;
70731;SDS011;58316;48.164;11.538;2022-07-01T12:14:23;4.33;;;0.90;;
70731;SDS011;58316;48.164;11.538;2022-07-01T12:16:51;5.40;;;1.50;;
70731;SDS011;58316;48.164;11.538;2022-07-01T12:19:17;5.25;;;1.40;;
70731;SDS011;58316;48.164;11.538;2022-07-01T12:21:53;6.20;;;1.58;;
70731;SDS011;58316;48.164;11.538;2022-07-01T12:24:21;4.70;;;1.40;;
70731;SDS011;58316;48.164;11.538;2022-07-01T12:26:48;7.30;;;2.07;;
70731;SDS011;58316;48.164;11.538;2022-07-01T12:29:16;4.80;;;1.27;;
70731;SDS011;58316;48.164;11.538;2022-07-01T12:31:43;5.90;;;2.00;;
70731;SDS011;58316;48.164;11.538;2022-07-01T12:34:09;5.00;;;1.42;;
70731;SDS011;58316;48.164;11.538;2022-07-01T12:36:35;6.50;;;1.73;;
70731;SDS011;58316;48.164;11.538;2022-07-01T12:39:02;6.47;;;1.57;;
70731;SDS011;58316;48.164;11.538;2022-07-01T12:41:32;4.70;;;1.40;;
70731;SDS011;58316;48.164;11.538;2022-07-01T12:44:01;5.78;;;1.70;;
70731;SDS011;58316;48.164;11.538;2022-07-01T12:46:31;4.78;;;1.52;;
70731;SDS011;58316;48.164;11.538;2022-07-01T12:48:57;5.55;;;1.50;;
70731;SDS011;58316;48.164;11.538;2022-07-01T12:51:30;5.13;;;1.60;;
70731;SDS011;58316;48.164;11.538;2022-07-01T12:53:56;5.05;;;1.60;;
70731;SDS011;58316;48.164;11.538;2022-07-01T12:56:23;6.00;;;2.00;;
70731;SDS011;58316;48.164;11.538;2022-07-01T12:58:50;7.85;;;2.17;;
70731;SDS011;58316;48.164;11.538;2022-07-01T13:01:19;6.15;;;2.13;;
70731;SDS011;58316;48.164;11.538;2022-07-01T13:03:45;7.00;;;1.70;;
70731;SDS011;58316;48.164;11.538;2022-07-01T13:06:11;7.40;;;2.10;;
70731;SDS011;58316;48.164;11.538;2022-07-01T13:08:38;5.72;;;2.10;;
70731;SDS011;58316;48.164;11.538;2022-07-01T13:11:04;6.15;;;1.98;;
70731;SDS011;58316;48.164;11.538;2022-07-01T13:13:31;6.40;;;2.47;;
70731;SDS011;58316;48.164;11.538;2022-07-01T13:15:57;6.53;;;2.10;;
70731;SDS011;58316;48.164;11.538;2022-07-01T13:18:23;6.93;;;2.28;;
70731;SDS011;58316;48.164;11.538;2022-07-01T13:20:49;6.65;;;2.28;;
70731;SDS011;58316;48.164;11.538;2022-07-01T13:23:15;6.45;;;2.20;;
70731;SDS011;58316;48.164;11.538;2022-07-01T13:25:42;8.13;;;2.20;;
70731;SDS011;58316;48.164;11.538;2022-07-01T13:28:08;8.57;;;2.20;;
70731;SDS011;58316;48.164;11.538;2022-07-01T13:30:34;6.10;;;2.22;;
70731;SDS011;58316;48.164;11.538;2022-07-01T13:33:03;5.80;;;2.42;;
70731;SDS011;58316;48.164;11.538;2022-07-01T13:35:29;7.97;;;2.60;;
70731;SDS011;58316;48.164;11.538;2022-07-01T13:37:55;6.75;;;2.50;;
70731;SDS011;58316;48.164;11.538;2022-07-01T13:40:21;7.03;;;2.83;;
70731;SDS011;58316;48.164;11.538;2022-07-01T13:42:47;8.57;;;2.72;;
70731;SDS011;58316;48.164;11.538;2022-07-01T13:45:13;6.13;;;2.22;;
70731;SDS011;58316;48.164;11.538;2022-07-01T13:47:39;6.45;;;2.20;;
70731;SDS011;58316;48.164;11.538;2022-07-01T13:50:06;8.57;;;2.47;;
70731;SDS011;58316;48.164;11.538;2022-07-01T13:52:32;6.57;;;2.60;;
70731;SDS011;58316;48.164;11.538;2022-07-01T13:54:58;6.72;;;2.25;;
70731;SDS011;58316;48.164;11.538;2022-07-01T13:57:25;5.95;;;2.50;;
70731;SDS011;58316;48.164;11.538;2022-07-01T13:59:51;6.03;;;2.20;;
70731;SDS011;58316;48.164;11.538;2022-07-01T14:02:18;6.07;;;2.00;;
70731;SDS011;58316;48.164;11.538;2022-07-01T14:04:44;5.40;;;1.43;;
70731;SDS011;58316;48.164;11.538;2022-07-01T14:07:11;5.90;;;2.08;;
70731;SDS011;58316;48.164;11.538;2022-07-01T14:09:37;6.82;;;1.90;;
70731;SDS011;58316;48.164;11.538;2022-07-01T14:12:05;7.65;;;2.35;;
70731;SDS011;58316;48.164;11.538;2022-07-01T14:14:31;8.50;;;2.72;;
70731;SDS011;58316;48.164;11.538;2022-07-01T14:16:57;6.80;;;2.10;;
70731;SDS011;58316;48.164;11.538;2022-07-01T14:19:23;8.75;;;2.58;;
70731;SDS011;58316;48.164;11.538;2022-07-01T14:21:49;6.57;;;2.30;;
70731;SDS011;58316;48.164;11.538;2022-07-01T14:24:15;7.05;;;2.10;;
70731;SDS011;58316;48.164;11.538;2022-07-01T14:26:41;5.30;;;1.90;;
70731;SDS011;58316;48.164;11.538;2022-07-01T14:29:07;6.40;;;2.03;;
70731;SDS011;58316;48.164;11.538;2022-07-01T14:31:33;5.97;;;1.63;;
70731;SDS011;58316;48.164;11.538;2022-07-01T14:34:00;6.25;;;2.00;;
70731;SDS011;58316;48.164;11.538;2022-07-01T14:36:26;5.70;;;1.73;;
70731;SDS011;58316;48.164;11.538;2022-07-01T14:38:52;5.78;;;2.10;;
70731;SDS011;58316;48.164;11.538;2022-07-01T14:41:18;6.17;;;2.00;;
70731;SDS011;58316;48.164;11.538;2022-07-01T14:43:44;5.25;;;1.70;;
70731;SDS011;58316;48.164;11.538;2022-07-01T14:46:10;5.60;;;1.83;;
70731;SDS011;58316;48.164;11.538;2022-07-01T14:48:39;5.25;;;1.80;;
70731;SDS011;58316;48.164;11.538;2022-07-01T14:51:08;4.82;;;1.65;;
70731;SDS011;58316;48.164;11.538;2022-07-01T14:53:34;11.20;;;2.80;;
70731;SDS011;58316;48.164;11.538;2022-07-01T14:56:00;5.88;;;1.90;;
70731;SDS011;58316;48.164;11.538;2022-07-01T14:58:26;7.15;;;2.85;;